Time;durP1;ratioP1;P1;durP2;ratioP2;P2;SDS_P1;SDS_P2;PMS_P1;PMS_P2;Temp;Humidity;BMP_temperature;BMP_pressure;BME280_temperature;BME280_humidity;BME280_pressure;Samples;Min_cycle;Max_cycle;Signal;HPM_P1;HPM_P2
2023/04/10 00:00:24;;;;;;;;;;;;;;;9.57;100.00;98697.63;5087116;28;19925;-73
2023/04/10 00:02:51;;;;;;;;;;;;;;;9.56;100.00;98698.66;5085193;28;19928;-72
2023/04/10 00:05:17;;;;;;;;;;;;;;;9.33;100.00;98692.59;5082847;28;19932;-72
2023/04/10 00:07:43;;;;;;;;;;;;;;;9.21;100.00;98689.97;5065160;28;19933;-71
2023/04/10 00:10:10;;;;;;;;;;;;;;;9.02;100.00;98691.16;5068367;28;19928;-74
2023/04/10 00:12:38;;;;;;;;;;;;;;;8.81;100.00;98689.91;5086382;28;19931;-72
2023/04/10 00:15:04;;;;;;;;;;;;;;;8.55;100.00;98696.50;5065685;28;19925;-74
2023/04/10 00:17:31;;;;;;;;;;;;;;;8.53;100.00;98698.59;5082608;28;19924;-74
2023/04/10 00:19:58;;;;;;;;;;;;;;;8.68;100.00;98693.63;5084231;28;19920;-72
2023/04/10 00:22:24;;;;;;;;;;;;;;;8.70;100.00;98687.25;5068389;28;19924;-72
2023/04/10 00:24:50;;;;;;;;;;;;;;;8.96;100.00;98689.44;5085262;28;19936;-72
2023/04/10 00:27:17;;;;;;;;;;;;;;;9.10;100.00;98691.59;5084956;28;19921;-72
2023/04/10 00:29:44;;;;;;;;;;;;;;;9.23;100.00;98691.34;5069477;28;19925;-73
2023/04/10 00:32:11;;;;;;;;;;;;;;;9.32;100.00;98693.63;5090103;28;19924;-73
2023/04/10 00:34:37;;;;;;;;;;;;;;;9.38;100.00;98690.84;5089854;28;19921;-73
2023/04/10 00:37:03;;;;;;;;;;;;;;;9.41;100.00;98690.38;5069367;28;19932;-74
2023/04/10 00:39:30;;;;;;;;;;;;;;;9.43;100.00;98682.97;5068806;28;19932;-72
2023/04/10 00:41:57;;;;;;;;;;;;;;;9.41;100.00;98689.59;5087807;28;19952;-73
2023/04/10 00:44:23;;;;;;;;;;;;;;;9.45;100.00;98674.72;5089847;28;19925;-73
2023/04/10 00:46:51;;;;;;;;;;;;;;;9.42;100.00;98676.00;5089007;28;19928;-75
2023/04/10 00:49:18;;;;;;;;;;;;;;;9.45;100.00;98672.06;5086274;28;19920;-74
2023/04/10 00:51:44;;;;;;;;;;;;;;;9.44;100.00;98667.78;5086194;28;19947;-73
2023/04/10 00:54:10;;;;;;;;;;;;;;;9.42;100.00;98673.34;5071873;28;19928;-74
2023/04/10 00:56:37;;;;;;;;;;;;;;;9.40;100.00;98672.78;5071791;28;19946;-74
2023/04/10 00:59:03;;;;;;;;;;;;;;;9.40;100.00;98671.97;5087008;28;19991;-73
2023/04/10 01:01:30;;;;;;;;;;;;;;;9.36;100.00;98665.47;5086825;28;19921;-73
2023/04/10 01:03:58;;;;;;;;;;;;;;;9.32;100.00;98667.81;5087392;28;19924;-71
2023/04/10 01:06:30;;;;;;;;;;;;;;;9.32;100.00;98673.13;5089315;28;19928;-74
2023/04/10 01:09:00;;;;;;;;;;;;;;;9.35;100.00;98662.00;5087549;28;19937;-74
2023/04/10 01:11:30;;;;;;;;;;;;;;;9.34;100.00;98663.06;5068232;28;19932;-74
2023/04/10 01:14:00;;;;;;;;;;;;;;;9.29;100.00;98657.63;5087386;28;20255;-74
2023/04/10 01:16:31;;;;;;;;;;;;;;;9.31;100.00;98662.72;5089243;28;19924;-73
2023/04/10 01:19:04;;;;;;;;;;;;;;;9.29;100.00;98656.78;5087508;28;19926;-73
2023/04/10 01:21:32;;;;;;;;;;;;;;;9.33;100.00;98656.09;5067843;28;20365;-74
2023/04/10 01:24:16;;;;;;;;;;;;;;;9.36;100.00;98662.81;5087993;28;19925;-73
2023/04/10 01:26:52;;;;;;;;;;;;;;;9.34;100.00;98657.72;5089547;28;19924;-74
2023/04/10 01:29:21;;;;;;;;;;;;;;;9.31;100.00;98652.88;5090885;28;19932;-74
2023/04/10 01:31:52;;;;;;;;;;;;;;;9.33;100.00;98652.63;5089534;28;19951;-73
2023/04/10 01:34:20;;;;;;;;;;;;;;;9.33;100.00;98650.78;5089287;28;19925;-74
2023/04/10 01:36:49;;;;;;;;;;;;;;;9.34;100.00;98641.75;5089030;28;19925;-74
2023/04/10 01:39:18;;;;;;;;;;;;;;;9.33;100.00;98640.09;5084491;28;19932;-74
2023/04/10 01:41:45;;;;;;;;;;;;;;;9.32;100.00;98635.81;5085293;28;19925;-75
2023/04/10 01:44:13;;;;;;;;;;;;;;;9.31;100.00;98634.22;5077289;28;19927;-76
2023/04/10 01:46:43;;;;;;;;;;;;;;;9.29;100.00;98638.13;5076904;28;19925;-76
2023/04/10 01:49:10;;;;;;;;;;;;;;;9.30;100.00;98635.25;5076891;28;19929;-75
2023/04/10 01:51:37;;;;;;;;;;;;;;;9.29;100.00;98635.47;5076850;28;19925;-76
2023/04/10 01:54:04;;;;;;;;;;;;;;;9.27;100.00;98634.91;5085210;28;19925;-75
2023/04/10 01:56:32;;;;;;;;;;;;;;;9.24;100.00;98622.88;5067452;28;19925;-76
2023/04/10 01:58:59;;;;;;;;;;;;;;;9.23;100.00;98634.56;5069187;28;19925;-76
2023/04/10 02:01:25;;;;;;;;;;;;;;;9.18;100.00;98629.97;5091342;28;19925;-73
2023/04/10 02:03:54;;;;;;;;;;;;;;;9.18;100.00;98626.47;5067823;28;19920;-76
2023/04/10 02:06:25;;;;;;;;;;;;;;;9.17;100.00;98630.19;5088397;28;19924;-73
2023/04/10 02:08:54;;;;;;;;;;;;;;;9.14;100.00;98630.66;5069889;28;19946;-75
2023/04/10 02:11:25;;;;;;;;;;;;;;;9.13;100.00;98637.84;5084844;28;19929;-75
2023/04/10 02:13:53;;;;;;;;;;;;;;;9.13;100.00;98634.34;5067952;28;19948;-77
2023/04/10 02:16:21;;;;;;;;;;;;;;;9.09;100.00;98635.91;5070223;28;19931;-75
2023/04/10 02:18:49;;;;;;;;;;;;;;;9.08;100.00;98631.59;5069705;28;19920;-75
2023/04/10 02:21:17;;;;;;;;;;;;;;;9.08;100.00;98631.59;5066898;28;19955;-75
2023/04/10 02:23:43;;;;;;;;;;;;;;;9.04;100.00;98635.78;5084587;28;19940;-77
2023/04/10 02:26:09;;;;;;;;;;;;;;;9.05;100.00;98627.56;5088002;28;19924;-76
2023/04/10 02:28:37;;;;;;;;;;;;;;;9.03;100.00;98627.00;5070403;28;19924;-77
2023/04/10 02:31:04;;;;;;;;;;;;;;;9.04;100.00;98631.25;5086043;28;19924;-74
2023/04/10 02:33:30;;;;;;;;;;;;;;;9.00;100.00;98626.66;5066702;28;19925;-75
2023/04/10 02:35:57;;;;;;;;;;;;;;;9.00;100.00;98624.00;5068992;28;19924;-76
2023/04/10 02:38:25;;;;;;;;;;;;;;;8.99;100.00;98627.69;5074975;28;19924;-74
2023/04/10 02:40:51;;;;;;;;;;;;;;;8.98;100.00;98636.72;5073755;28;19932;-74
2023/04/10 02:43:17;;;;;;;;;;;;;;;8.97;100.00;98638.59;5070281;28;19921;-74
2023/04/10 02:45:44;;;;;;;;;;;;;;;8.90;100.00;98634.41;5069519;28;19925;-75
2023/04/10 02:48:10;;;;;;;;;;;;;;;8.91;100.00;98636.06;5071864;28;19936;-75
2023/04/10 02:50:37;;;;;;;;;;;;;;;8.91;100.00;98644.81;5071196;28;19921;-76
2023/04/10 02:53:03;;;;;;;;;;;;;;;8.91;100.00;98647.50;5069086;28;19924;-76
2023/04/10 02:55:31;;;;;;;;;;;;;;;8.90;100.00;98645.91;5067720;28;20532;-74
2023/04/10 02:57:57;;;;;;;;;;;;;;;8.86;100.00;98641.25;5086001;28;19940;-74
2023/04/10 03:00:23;;;;;;;;;;;;;;;8.88;100.00;98645.28;5071674;28;19931;-76
2023/04/10 03:02:50;;;;;;;;;;;;;;;8.83;100.00;98644.38;5069547;28;19924;-76
2023/04/10 03:05:16;;;;;;;;;;;;;;;8.83;100.00;98644.38;5083338;28;19925;-76
2023/04/10 03:07:42;;;;;;;;;;;;;;;8.80;100.00;98643.00;5066387;28;19925;-76
2023/04/10 03:10:09;;;;;;;;;;;;;;;8.81;100.00;98644.63;5087032;28;19924;-77
2023/04/10 03:12:37;;;;;;;;;;;;;;;8.80;100.00;98651.00;5103214;28;20003;-76
2023/04/10 03:15:03;;;;;;;;;;;;;;;8.74;100.00;98651.09;5084635;28;19935;-74
2023/04/10 03:17:30;;;;;;;;;;;;;;;8.74;100.00;98645.78;5083594;28;19925;-76
2023/04/10 03:19:56;;;;;;;;;;;;;;;8.74;100.00;98648.44;5084970;28;19936;-76
2023/04/10 03:22:23;;;;;;;;;;;;;;;8.74;100.00;98649.25;5086971;28;19928;-75
2023/04/10 03:24:49;;;;;;;;;;;;;;;8.74;100.00;98657.25;5068575;28;19933;-76
2023/04/10 03:27:17;;;;;;;;;;;;;;;8.73;100.00;98657.50;5065858;28;19947;-75
2023/04/10 03:29:45;;;;;;;;;;;;;;;8.74;100.00;98656.44;5084061;28;19932;-75
2023/04/10 03:32:11;;;;;;;;;;;;;;;8.72;100.00;98650.53;5087024;28;19931;-75
2023/04/10 03:34:38;;;;;;;;;;;;;;;8.72;100.00;98653.22;5086728;28;19925;-75
2023/04/10 03:37:04;;;;;;;;;;;;;;;8.69;100.00;98654.50;5066411;28;20350;-75
2023/04/10 03:39:30;;;;;;;;;;;;;;;8.65;100.00;98654.13;5083134;28;19925;-76
2023/04/10 03:41:57;;;;;;;;;;;;;;;8.67;100.00;98648.56;5084820;28;19924;-76
2023/04/10 03:44:23;;;;;;;;;;;;;;;8.64;100.00;98649.03;5086760;28;19939;-75
2023/04/10 03:46:51;;;;;;;;;;;;;;;8.67;100.00;98644.06;5085908;28;19925;-77
2023/04/10 03:49:17;;;;;;;;;;;;;;;8.65;100.00;98650.66;5083305;28;19920;-74
2023/04/10 03:51:43;;;;;;;;;;;;;;;8.61;100.00;98652.16;5083141;28;19929;-76
2023/04/10 03:54:09;;;;;;;;;;;;;;;8.62;100.00;98649.28;5068929;28;19931;-75
2023/04/10 03:56:36;;;;;;;;;;;;;;;8.62;100.00;98659.94;5086418;28;19950;-75
2023/04/10 03:59:02;;;;;;;;;;;;;;;8.61;100.00;98652.97;5084055;28;19920;-75
2023/04/10 04:01:29;;;;;;;;;;;;;;;8.61;100.00;98658.28;5084260;28;19925;-75
2023/04/10 04:03:57;;;;;;;;;;;;;;;8.64;100.00;98657.03;5088840;28;19925;-75
2023/04/10 04:06:23;;;;;;;;;;;;;;;8.61;100.00;98652.97;5073141;28;19924;-76
2023/04/10 04:08:49;;;;;;;;;;;;;;;8.57;100.00;98657.13;5089922;28;19935;-76
2023/04/10 04:11:16;;;;;;;;;;;;;;;8.56;100.00;98663.53;5069546;28;19925;-76
2023/04/10 04:13:42;;;;;;;;;;;;;;;8.57;100.00;98661.66;5087168;28;19924;-75
2023/04/10 04:16:09;;;;;;;;;;;;;;;8.53;100.00;98661.31;5072576;28;19931;-76
2023/04/10 04:18:36;;;;;;;;;;;;;;;8.53;100.00;98657.84;5072815;28;19932;-75
2023/04/10 04:21:04;;;;;;;;;;;;;;;8.58;100.00;98658.75;5088243;28;19925;-76
2023/04/10 04:23:30;;;;;;;;;;;;;;;8.59;100.00;98662.25;5087095;28;19925;-75
2023/04/10 04:25:57;;;;;;;;;;;;;;;8.49;100.00;98664.66;5071420;28;19925;-75
2023/04/10 04:28:24;;;;;;;;;;;;;;;8.44;100.00;98665.38;5078774;28;19920;-75
2023/04/10 04:30:50;;;;;;;;;;;;;;;8.45;100.00;98661.66;5097226;28;19912;-75
2023/04/10 04:33:16;;;;;;;;;;;;;;;8.46;100.00;98660.63;5075023;28;19927;-76
2023/04/10 04:35:43;;;;;;;;;;;;;;;8.49;100.00;98665.47;5089485;28;19921;-74
2023/04/10 04:38:10;;;;;;;;;;;;;;;8.48;100.00;98663.84;5074274;28;19924;-76
2023/04/10 04:40:37;;;;;;;;;;;;;;;8.54;100.00;98670.91;5073393;28;19925;-76
2023/04/10 04:43:03;;;;;;;;;;;;;;;8.58;100.00;98682.72;5088012;28;19925;-77
2023/04/10 04:45:29;;;;;;;;;;;;;;;8.50;100.00;98682.25;5087181;28;19925;-76
2023/04/10 04:47:56;;;;;;;;;;;;;;;8.53;100.00;98690.59;5070912;28;20233;-76
2023/04/10 04:50:22;;;;;;;;;;;;;;;8.52;100.00;98696.97;5090657;28;20429;-73
2023/04/10 04:52:49;;;;;;;;;;;;;;;8.56;100.00;98686.66;5072966;28;19921;-75
2023/04/10 04:55:16;;;;;;;;;;;;;;;8.56;100.00;98690.16;5088716;28;19928;-74
2023/04/10 04:57:43;;;;;;;;;;;;;;;8.56;100.00;98687.47;5071917;28;19920;-75
2023/04/10 05:00:10;;;;;;;;;;;;;;;8.53;100.00;98682.63;5094151;28;19921;-74
2023/04/10 05:02:36;;;;;;;;;;;;;;;8.57;100.00;98705.06;5077442;28;19932;-75
2023/04/10 05:05:02;;;;;;;;;;;;;;;8.47;100.00;98690.72;5080646;28;19927;-73
2023/04/10 05:07:29;;;;;;;;;;;;;;;8.52;100.00;98696.97;5089765;28;19959;-75
2023/04/10 05:09:55;;;;;;;;;;;;;;;8.44;100.00;98699.97;5090814;28;19921;-74
2023/04/10 05:12:23;;;;;;;;;;;;;;;8.41;100.00;98699.63;5073639;28;19927;-76
2023/04/10 05:14:53;;;;;;;;;;;;;;;8.37;100.00;98701.91;5072894;28;19925;-77
2023/04/10 05:17:19;;;;;;;;;;;;;;;8.27;100.00;98698.97;5072320;28;19920;-76
2023/04/10 05:19:45;;;;;;;;;;;;;;;7.95;100.00;98693.09;5071093;28;19925;-76
2023/04/10 05:22:12;;;;;;;;;;;;;;;7.88;100.00;98689.75;5071358;28;19920;-75
2023/04/10 05:24:38;;;;;;;;;;;;;;;8.05;100.00;98687.22;5060289;28;19932;-76
2023/04/10 05:27:04;;;;;;;;;;;;;;;8.12;100.00;98699.41;5077482;28;19936;-76
2023/04/10 05:29:32;;;;;;;;;;;;;;;8.08;100.00;98700.91;5077315;28;19924;-75
2023/04/10 05:31:58;;;;;;;;;;;;;;;8.14;100.00;98693.84;5088328;28;19932;-75
2023/04/10 05:34:25;;;;;;;;;;;;;;;8.23;100.00;98686.38;5071386;28;20494;-76
2023/04/10 05:36:51;;;;;;;;;;;;;;;7.95;100.00;98693.09;5088243;28;19924;-75
2023/04/10 05:39:17;;;;;;;;;;;;;;;7.88;100.00;98694.25;5084741;28;19925;-74
2023/04/10 05:41:44;;;;;;;;;;;;;;;8.01;100.00;98691.41;5085480;28;19932;-76
2023/04/10 05:44:10;;;;;;;;;;;;;;;8.10;100.00;98698.03;5089036;28;19935;-76
2023/04/10 05:46:38;;;;;;;;;;;;;;;8.19;100.00;98698.50;5071904;28;19924;-76
2023/04/10 05:49:04;;;;;;;;;;;;;;;8.24;100.00;98691.44;5068338;28;19936;-75
2023/04/10 05:51:30;;;;;;;;;;;;;;;8.10;100.00;98698.03;5059299;28;19936;-74
2023/04/10 05:53:57;;;;;;;;;;;;;;;8.00;100.00;98692.44;5076638;28;19932;-76
2023/04/10 05:56:23;;;;;;;;;;;;;;;8.14;100.00;98702.66;5072799;28;19924;-76
2023/04/10 05:58:49;;;;;;;;;;;;;;;8.23;100.00;98700.50;5070180;28;19924;-75
2023/04/10 06:01:16;;;;;;;;;;;;;;;8.26;100.00;98702.69;5071140;28;19935;-75
2023/04/10 06:03:44;;;;;;;;;;;;;;;8.67;100.00;98702.63;5087435;28;19932;-74
2023/04/10 06:06:10;;;;;;;;;;;;;;;9.00;100.00;98707.41;5091048;28;19952;-75
2023/04/10 06:08:36;;;;;;;;;;;;;;;9.25;100.00;98709.78;5091060;28;19936;-75
2023/04/10 06:11:03;;;;;;;;;;;;;;;9.44;100.00;98708.56;5088805;28;19920;-75
2023/04/10 06:13:29;;;;;;;;;;;;;;;9.65;100.00;98709.78;5086763;28;19932;-74
2023/04/10 06:15:55;;;;;;;;;;;;;;;9.65;100.00;98707.94;5069048;28;19929;-75
2023/04/10 06:18:22;;;;;;;;;;;;;;;9.73;100.00;98709.41;5088250;28;19927;-76
2023/04/10 06:20:50;;;;;;;;;;;;;;;9.44;100.00;98700.56;5087773;28;19951;-75
2023/04/10 06:23:16;;;;;;;;;;;;;;;9.55;100.00;98704.25;5084627;28;19929;-76
2023/04/10 06:25:43;;;;;;;;;;;;;;;9.81;100.00;98710.91;5066250;28;19925;-77
2023/04/10 06:28:09;;;;;;;;;;;;;;;9.38;100.00;98712.19;5087935;28;19932;-74
2023/04/10 06:30:36;;;;;;;;;;;;;;;9.10;100.00;98706.78;5088798;28;19928;-75
2023/04/10 06:33:03;;;;;;;;;;;;;;;9.02;100.00;98707.16;5067603;28;19921;-76
2023/04/10 06:35:30;;;;;;;;;;;;;;;8.70;100.00;98700.56;5066654;28;19929;-74
2023/04/10 06:37:57;;;;;;;;;;;;;;;8.59;100.00;98696.84;5067876;28;19937;-75
2023/04/10 06:40:24;;;;;;;;;;;;;;;8.43;100.00;98698.34;5087829;28;19924;-74
2023/04/10 06:42:50;;;;;;;;;;;;;;;8.09;100.00;98702.53;5086977;28;19924;-76
2023/04/10 06:45:16;;;;;;;;;;;;;;;7.88;100.00;98697.72;5066529;28;19925;-75
2023/04/10 06:47:43;;;;;;;;;;;;;;;7.96;100.00;98696.56;5066505;28;19925;-75
2023/04/10 06:50:10;;;;;;;;;;;;;;;8.08;100.00;98690.25;5087391;28;19924;-76
2023/04/10 06:52:36;;;;;;;;;;;;;;;8.10;100.00;98690.03;5087935;28;19935;-74
2023/04/10 06:55:04;;;;;;;;;;;;;;;8.30;100.00;98690.56;5085231;28;19954;-76
2023/04/10 06:57:30;;;;;;;;;;;;;;;8.81;100.00;98689.91;5066210;28;19925;-73
2023/04/10 06:59:57;;;;;;;;;;;;;;;8.66;100.00;98689.56;5068620;28;19932;-76
2023/04/10 07:02:23;;;;;;;;;;;;;;;8.51;100.00;98683.91;5087393;28;19932;-75
2023/04/10 07:04:49;;;;;;;;;;;;;;;8.85;100.00;98690.25;5086801;28;19924;-75
2023/04/10 07:07:18;;;;;;;;;;;;;;;9.03;100.00;98687.47;5066438;28;19936;-76
2023/04/10 07:09:44;;;;;;;;;;;;;;;8.88;100.00;98687.91;5084759;28;19925;-74
2023/04/10 07:12:12;;;;;;;;;;;;;;;8.82;100.00;98686.19;5074378;28;19924;-73
2023/04/10 07:14:38;;;;;;;;;;;;;;;8.85;100.00;98680.38;5091914;28;19912;-75
2023/04/10 07:17:04;;;;;;;;;;;;;;;8.59;100.00;98683.53;5089543;28;19925;-75
2023/04/10 07:19:31;;;;;;;;;;;;;;;8.40;100.00;98682.81;5088232;28;19924;-77
2023/04/10 07:21:57;;;;;;;;;;;;;;;8.52;100.00;98690.81;5072042;28;19952;-75
2023/04/10 07:24:23;;;;;;;;;;;;;;;8.55;100.00;98701.81;5069497;28;19974;-75
2023/04/10 07:26:50;;;;;;;;;;;;;;;9.27;100.00;98694.38;5086340;28;19925;-75
2023/04/10 07:29:17;;;;;;;;;;;;;;;8.86;100.00;98697.19;5083324;28;19929;-74
2023/04/10 07:31:44;;;;;;;;;;;;;;;8.45;100.00;98696.25;5083237;28;19921;-76
2023/04/10 07:34:11;;;;;;;;;;;;;;;8.32;100.00;98704.47;5086932;28;19928;-73
2023/04/10 07:36:37;;;;;;;;;;;;;;;8.42;100.00;98707.34;5068321;28;19925;-75
2023/04/10 07:39:03;;;;;;;;;;;;;;;8.55;100.00;98707.16;5084224;28;19924;-75
2023/04/10 07:41:30;;;;;;;;;;;;;;;8.87;100.00;98709.47;5065816;28;20582;-75
2023/04/10 07:43:56;;;;;;;;;;;;;;;8.64;100.00;98700.44;5084898;28;19936;-74
2023/04/10 07:46:25;;;;;;;;;;;;;;;8.62;100.00;98718.50;5087728;28;19920;-74
2023/04/10 07:48:51;;;;;;;;;;;;;;;8.60;100.00;98703.81;5087159;28;20242;-75
2023/04/10 07:51:18;;;;;;;;;;;;;;;8.51;100.00;98708.63;5066805;28;19925;-74
2023/04/10 07:53:44;;;;;;;;;;;;;;;8.63;100.00;98703.34;5066058;28;19951;-75
2023/04/10 07:56:15;;;;;;;;;;;;;;;8.76;100.00;98703.09;5069866;28;19924;-75
2023/04/10 07:58:41;;;;;;;;;;;;;;;8.78;100.00;98706.34;5087335;28;20276;-74
2023/04/10 08:01:08;;;;;;;;;;;;;;;8.86;100.00;98703.31;5084888;28;19936;-75
2023/04/10 08:03:39;;;;;;;;;;;;;;;8.87;100.00;98701.47;5083761;28;19925;-75
2023/04/10 08:06:07;;;;;;;;;;;;;;;9.00;100.00;98698.59;5086738;28;19932;-74
2023/04/10 08:08:34;;;;;;;;;;;;;;;9.00;100.00;98694.06;5087591;28;19924;-76
2023/04/10 08:11:00;;;;;;;;;;;;;;;8.90;100.00;98693.03;5067227;28;19924;-74
2023/04/10 08:13:27;;;;;;;;;;;;;;;9.00;100.00;98693.25;5083694;28;19925;-75
2023/04/10 08:15:53;;;;;;;;;;;;;;;9.11;100.00;98689.75;5067731;28;19933;-75
2023/04/10 08:18:20;;;;;;;;;;;;;;;9.13;100.00;98685.81;5087680;28;19924;-74
2023/04/10 08:20:47;;;;;;;;;;;;;;;9.17;100.00;98680.81;5103117;28;19939;-73
2023/04/10 08:23:14;;;;;;;;;;;;;;;9.34;100.00;98691.56;5084620;28;19944;-75
2023/04/10 08:25:40;;;;;;;;;;;;;;;9.30;100.00;98691.22;5067563;28;19920;-75
2023/04/10 08:28:06;;;;;;;;;;;;;;;9.29;100.00;98680.78;5070722;28;19928;-73
2023/04/10 08:30:33;;;;;;;;;;;;;;;9.40;100.00;98682.63;5074109;28;19950;-74
2023/04/10 08:32:59;;;;;;;;;;;;;;;9.51;100.00;98685.25;5087039;28;19950;-70
2023/04/10 08:35:25;;;;;;;;;;;;;;;9.61;100.00;98673.97;5065662;28;19929;-67
2023/04/10 08:37:53;;;;;;;;;;;;;;;9.52;100.00;98673.56;5083470;28;19936;-67
2023/04/10 08:40:20;;;;;;;;;;;;;;;9.66;100.00;98677.53;5068991;28;20264;-69
2023/04/10 08:42:46;;;;;;;;;;;;;;;9.63;100.00;98680.69;5088473;28;19931;-75
2023/04/10 08:45:12;;;;;;;;;;;;;;;9.76;100.00;98683.06;5085915;28;19921;-75
2023/04/10 08:47:40;;;;;;;;;;;;;;;9.79;100.00;98671.09;5087133;28;19980;-74
2023/04/10 08:50:10;;;;;;;;;;;;;;;9.71;100.00;98675.00;5075082;28;19935;-75
2023/04/10 08:52:38;;;;;;;;;;;;;;;9.85;100.00;98672.00;5093400;28;19924;-74
2023/04/10 08:55:08;;;;;;;;;;;;;;;9.92;100.00;98668.16;5090134;28;19909;-75
2023/04/10 08:57:36;;;;;;;;;;;;;;;9.98;100.00;98664.53;5072467;28;19927;-75
2023/04/10 09:00:03;;;;;;;;;;;;;;;10.04;100.00;98657.41;5094323;28;19924;-75
2023/04/10 09:02:29;;;;;;;;;;;;;;;10.17;100.00;98657.13;5076598;28;19924;-77
2023/04/10 09:04:59;;;;;;;;;;;;;;;10.12;100.00;98657.03;5080407;28;19947;-76
2023/04/10 09:07:26;;;;;;;;;;;;;;;10.14;100.00;98666.44;5081316;28;19925;-76
2023/04/10 09:09:53;;;;;;;;;;;;;;;10.18;100.00;98664.09;5080976;28;19925;-74
2023/04/10 09:12:23;;;;;;;;;;;;;;;10.14;100.00;98661.09;5067853;28;19935;-76
2023/04/10 09:14:53;;;;;;;;;;;;;;;10.17;100.00;98657.94;5089839;28;19920;-76
2023/04/10 09:17:20;;;;;;;;;;;;;;;10.20;100.00;98656.66;5069670;28;19935;-76
2023/04/10 09:19:47;;;;;;;;;;;;;;;10.24;100.00;98655.13;5086552;28;19928;-75
2023/04/10 09:22:17;;;;;;;;;;;;;;;10.36;100.00;98650.50;5078383;28;20390;-75
2023/04/10 09:24:46;;;;;;;;;;;;;;;10.43;100.00;98640.44;5078239;28;19928;-76
2023/04/10 09:27:27;;;;;;;;;;;;;;;10.43;100.00;98643.13;5085339;28;19951;-77
2023/04/10 09:29:54;;;;;;;;;;;;;;;10.52;100.00;98632.84;5087090;28;19925;-76
2023/04/10 09:32:35;;;;;;;;;;;;;;;10.51;100.00;98637.38;5089327;28;19924;-75
2023/04/10 09:35:03;;;;;;;;;;;;;;;10.62;100.00;98623.13;5069337;28;19936;-76
2023/04/10 09:37:31;;;;;;;;;;;;;;;10.60;100.00;98627.91;5085979;28;19932;-73
2023/04/10 09:39:57;;;;;;;;;;;;;;;10.69;100.00;98623.75;5069633;28;19921;-76
2023/04/10 09:42:30;;;;;;;;;;;;;;;10.77;100.00;98628.66;5088777;28;19978;-75
2023/04/10 09:44:56;;;;;;;;;;;;;;;10.87;100.00;98619.16;5087794;28;19929;-77
2023/04/10 09:47:23;;;;;;;;;;;;;;;10.92;100.00;98621.94;5067736;28;19952;-76
2023/04/10 09:49:51;;;;;;;;;;;;;;;10.95;100.00;98614.22;5068308;28;19932;-75
2023/04/10 09:52:18;;;;;;;;;;;;;;;11.12;100.00;98614.16;5088977;28;19920;-77
2023/04/10 09:54:44;;;;;;;;;;;;;;;11.16;100.00;98613.41;5070971;28;19924;-77
2023/04/10 09:57:12;;;;;;;;;;;;;;;11.02;100.00;98612.16;5067644;28;19929;-76
2023/04/10 09:59:43;;;;;;;;;;;;;;;11.02;100.00;98606.00;5066577;28;19925;-78
2023/04/10 10:02:09;;;;;;;;;;;;;;;11.08;100.00;98599.69;5070760;28;19931;-77
2023/04/10 10:04:36;;;;;;;;;;;;;;;11.24;100.00;98596.09;5070907;28;19929;-78
2023/04/10 10:07:15;;;;;;;;;;;;;;;11.37;100.00;98588.50;5086133;28;20290;-75
2023/04/10 10:09:42;;;;;;;;;;;;;;;11.56;100.00;98593.50;5085140;28;19948;-77
2023/04/10 10:12:09;;;;;;;;;;;;;;;11.42;100.00;98595.00;5070163;28;19931;-77
2023/04/10 10:14:44;;;;;;;;;;;;;;;11.36;100.00;98592.25;5070819;28;19935;-77
2023/04/10 10:17:11;;;;;;;;;;;;;;;11.53;100.00;98588.66;5067150;28;19924;-77
2023/04/10 10:19:43;;;;;;;;;;;;;;;11.53;100.00;98573.44;5067004;28;19936;-77
2023/04/10 10:22:09;;;;;;;;;;;;;;;11.67;100.00;98581.84;5070169;28;19939;-76
2023/04/10 10:24:37;;;;;;;;;;;;;;;11.67;100.00;98571.13;5071882;28;19940;-76
2023/04/10 10:27:05;;;;;;;;;;;;;;;11.70;100.00;98571.47;5074987;28;19924;-76
2023/04/10 10:29:32;;;;;;;;;;;;;;;11.63;100.00;98581.56;5084756;28;19925;-76
2023/04/10 10:32:01;;;;;;;;;;;;;;;11.66;100.00;98567.69;5086403;28;19925;-76
2023/04/10 10:34:41;;;;;;;;;;;;;;;11.72;100.00;98569.38;5070284;28;19924;-76
2023/04/10 10:37:08;;;;;;;;;;;;;;;11.92;100.00;98566.03;5084958;28;19925;-76
2023/04/10 10:39:42;;;;;;;;;;;;;;;12.02;100.00;98563.44;5084433;28;19925;-78
2023/04/10 10:42:13;;;;;;;;;;;;;;;11.96;100.00;98550.28;5087710;28;20302;-78
2023/04/10 10:44:41;;;;;;;;;;;;;;;12.17;100.00;98546.69;5071973;28;19932;-76
2023/04/10 10:47:15;;;;;;;;;;;;;;;12.33;100.00;98540.38;5070780;28;19921;-76
2023/04/10 10:49:55;;;;;;;;;;;;;;;12.28;100.00;98545.72;5080020;28;19912;-73
2023/04/10 10:52:45;;;;;;;;;;;;;;;12.26;99.67;98542.47;5098134;28;19925;-77
2023/04/10 10:55:30;;;;;;;;;;;;;;;12.24;99.77;98533.88;5067600;28;19924;-75
2023/04/10 10:57:57;;;;;;;;;;;;;;;12.26;100.00;98537.91;5088591;28;19928;-77
2023/04/10 11:00:24;;;;;;;;;;;;;;;12.16;98.81;98527.13;5088803;28;19924;-77
2023/04/10 11:03:06;;;;;;;;;;;;;;;12.23;98.45;98527.72;5086856;28;19970;-76
2023/04/10 11:05:47;;;;;;;;;;;;;;;12.33;97.85;98521.63;5065444;28;19924;-73
2023/04/10 11:08:15;;;;;;;;;;;;;;;12.37;99.67;98522.72;5087377;28;19924;-76
2023/04/10 11:11:00;;;;;;;;;;;;;;;12.32;96.51;98515.44;5086815;28;19924;-73
2023/04/10 11:13:26;;;;;;;;;;;;;;;12.16;96.52;98502.25;5075231;28;19928;-76
2023/04/10 11:15:54;;;;;;;;;;;;;;;12.12;98.86;98498.47;5075234;28;19921;-76
2023/04/10 11:18:40;;;;;;;;;;;;;;;12.14;100.00;98497.13;5075068;28;19925;-76
2023/04/10 11:21:10;;;;;;;;;;;;;;;12.23;100.00;98502.81;5075060;28;19931;-76
2023/04/10 11:23:38;;;;;;;;;;;;;;;12.31;100.00;98500.47;5070809;28;19929;-75
2023/04/10 11:26:06;;;;;;;;;;;;;;;12.16;100.00;98483.50;5085900;28;19948;-76
2023/04/10 11:28:36;;;;;;;;;;;;;;;12.47;98.53;98482.59;5071245;28;19920;-76
2023/04/10 11:31:20;;;;;;;;;;;;;;;12.64;96.51;98477.84;5084669;28;19920;-76
2023/04/10 11:33:47;;;;;;;;;;;;;;;12.46;97.64;98480.97;5065558;28;19924;-76
2023/04/10 11:36:14;;;;;;;;;;;;;;;12.50;100.00;98482.09;5087070;28;19925;-76
2023/04/10 11:38:53;;;;;;;;;;;;;;;12.38;98.28;98476.91;5069109;28;19925;-76
2023/04/10 11:41:19;;;;;;;;;;;;;;;12.39;97.61;98475.84;5082180;28;19925;-75
2023/04/10 11:43:45;;;;;;;;;;;;;;;12.30;98.54;98479.28;5083277;28;19925;-75
2023/04/10 11:46:12;;;;;;;;;;;;;;;12.52;100.00;98474.59;5068937;28;19925;-75
2023/04/10 11:48:38;;;;;;;;;;;;;;;12.61;95.22;98464.97;5068696;28;19931;-75
2023/04/10 11:51:12;;;;;;;;;;;;;;;12.58;96.36;98468.19;5100083;28;19932;-75
2023/04/10 11:53:39;;;;;;;;;;;;;;;12.57;97.90;98453.16;5083171;28;20012;-74
2023/04/10 11:56:14;;;;;;;;;;;;;;;12.55;93.31;98459.84;5085798;28;19925;-75
2023/04/10 11:58:41;;;;;;;;;;;;;;;12.56;94.11;98446.22;5069282;28;19920;-75
2023/04/10 12:01:10;;;;;;;;;;;;;;;12.75;93.65;98449.22;5069132;28;19955;-77
2023/04/10 12:03:38;;;;;;;;;;;;;;;12.89;92.42;98443.09;5072368;28;19924;-76
2023/04/10 12:06:09;;;;;;;;;;;;;;;12.93;90.63;98444.19;5092430;28;19909;-75
2023/04/10 12:08:36;;;;;;;;;;;;;;;12.76;89.76;98440.09;5077133;28;19916;-75
2023/04/10 12:11:03;;;;;;;;;;;;;;;12.84;88.12;98443.06;5091856;28;19994;-77
2023/04/10 12:13:31;;;;;;;;;;;;;;;12.78;87.27;98438.75;5091044;28;19921;-77
2023/04/10 12:16:01;;;;;;;;;;;;;;;12.86;89.66;98440.13;5090733;28;19928;-75
2023/04/10 12:18:28;;;;;;;;;;;;;;;13.06;85.70;98436.69;5091571;28;19931;-76
2023/04/10 12:20:56;;;;;;;;;;;;;;;13.16;82.04;98429.47;5071277;28;19932;-75
2023/04/10 12:23:22;;;;;;;;;;;;;;;13.11;81.74;98428.69;5068677;28;19921;-76
2023/04/10 12:25:49;;;;;;;;;;;;;;;13.19;83.82;98422.78;5088457;28;19924;-77
2023/04/10 12:28:19;;;;;;;;;;;;;;;13.11;83.93;98423.31;5073418;28;19931;-76
2023/04/10 12:30:48;;;;;;;;;;;;;;;13.00;84.05;98430.50;5070403;28;19920;-76
2023/04/10 12:33:20;;;;;;;;;;;;;;;12.76;86.71;98422.13;5061023;28;19925;-75
2023/04/10 12:35:46;;;;;;;;;;;;;;;12.89;88.24;98424.31;5069196;28;20119;-67
2023/04/10 12:38:12;;;;;;;;;;;;;;;12.83;90.50;98420.03;5071982;28;19947;-70
2023/04/10 12:40:40;;;;;;;;;;;;;;;12.84;90.79;98415.47;5089681;28;20384;-69
2023/04/10 12:43:06;;;;;;;;;;;;;;;12.98;81.72;98413.88;5069034;28;19924;-67
2023/04/10 12:45:42;;;;;;;;;;;;;;;13.07;79.76;98401.56;5087201;28;19925;-75
2023/04/10 12:48:10;;;;;;;;;;;;;;;13.34;79.95;98406.69;5072228;28;19925;-74